This is the latest recevied weather packets stored in our database for station/object K3TLB-13. If no packets are shown the sender has not sent any weather packets the latest 10 day(s).
| Time | Temp. | Humidity | Pressure | Rain* | Wind** | Luminosity | Snow |
|---|---|---|---|---|---|---|---|
| 1777837148 | 14.44° C | 33% | 1014.7 hPa | 0 mm | - | - | - |
| 1777836848 | 15° C | 33% | 1014.7 hPa | 0 mm | - | - | - |
| 1777836550 | 15° C | 35% | 1014.7 hPa | 0 mm | - | - | - |
| 1777836248 | 14.44° C | 33% | 1014.8 hPa | 0 mm | - | - | - |
| 1777835948 | 13.89° C | 30% | 1015 hPa | 0 mm | - | - | - |
| 1777835691 | 14.44° C | 30% | 1015 hPa | 0 mm | - | - | - |
| 1777835648 | 14.44° C | 30% | 1015 hPa | 0 mm | - | - | - |
| 1777835348 | 15° C | 39% | 1014.9 hPa | 0 mm | - | - | - |
| 1777835048 | 14.44° C | 36% | 1014.9 hPa | 0 mm | - | - | - |
| 1777834748 | 13.89° C | 31% | 1015.1 hPa | 0 mm | - | - | - |
| 1777834448 | 13.89° C | 33% | 1015.1 hPa | 0 mm | - | - | - |
| 1777834148 | 13.89° C | 34% | 1015.3 hPa | 0 mm | - | - | - |
| 1777833848 | 13.89° C | 36% | 1015.2 hPa | 0 mm | - | - | - |
| 1777833548 | 13.89° C | 33% | 1015.4 hPa | 0 mm | - | - | - |
| 1777833248 | 13.89° C | 34% | 1015.5 hPa | 0 mm | - | - | - |
| 1777832948 | 13.89° C | 33% | 1015.3 hPa | 0 mm | - | - | - |
| 1777832704 | 13.89° C | 33% | 1015.5 hPa | 0 mm | - | - | - |
| 1777832648 | 13.89° C | 33% | 1015.5 hPa | 0 mm | - | - | - |
| 1777832348 | 13.33° C | 34% | 1015.4 hPa | 0 mm | - | - | - |
| 1777832048 | 13.33° C | 31% | 1015.5 hPa | 0 mm | - | - | - |
| 1777831748 | 13.33° C | 33% | 1015.5 hPa | 0 mm | - | - | - |
| 1777831448 | 13.33° C | 37% | 1015.5 hPa | 0 mm | - | - | - |
| 1777831148 | 13.33° C | 32% | 1015.7 hPa | 0 mm | - | - | - |
| 1777830848 | 13.33° C | 40% | 1015.6 hPa | 0 mm | - | - | - |
| 1777830548 | 12.78° C | 34% | 1015.7 hPa | 0 mm | - | - | - |
* Rain latest hour (hover to see other rain measurements)
** Current wind speed in m/s (hover to see current wind gust speed)